sensor_id;sensor_type;location;lat;lon;timestamp;pressure;altitude;pressure_sealevel;temperature;humidity
36748;BME280;22716;51.556;5.080;2023-02-21T00:01:29;101400.75;;;8.71;100.00
36748;BME280;22716;51.556;5.080;2023-02-21T00:04:10;101398.13;;;8.68;100.00
36748;BME280;22716;51.556;5.080;2023-02-21T00:06:55;101397.25;;;8.66;100.00
36748;BME280;22716;51.556;5.080;2023-02-21T00:09:37;101407.72;;;8.70;100.00
36748;BME280;22716;51.556;5.080;2023-02-21T00:12:19;101401.63;;;8.71;100.00
36748;BME280;22716;51.556;5.080;2023-02-21T00:15:00;101405.09;;;8.75;100.00
36748;BME280;22716;51.556;5.080;2023-02-21T00:17:42;101402.47;;;8.70;100.00
36748;BME280;22716;51.556;5.080;2023-02-21T00:20:24;101401.56;;;8.62;100.00
36748;BME280;22716;51.556;5.080;2023-02-21T00:23:09;101407.66;;;8.60;100.00
36748;BME280;22716;51.556;5.080;2023-02-21T00:25:51;101411.19;;;8.68;100.00
36748;BME280;22716;51.556;5.080;2023-02-21T00:28:32;101411.16;;;8.65;100.00
36748;BME280;22716;51.556;5.080;2023-02-21T00:31:17;101415.50;;;8.63;100.00
36748;BME280;22716;51.556;5.080;2023-02-21T00:33:59;101408.47;;;8.57;100.00
36748;BME280;22716;51.556;5.080;2023-02-21T00:36:40;101421.56;;;8.59;100.00
36748;BME280;22716;51.556;5.080;2023-02-21T00:39:24;101412.00;;;8.59;100.00
36748;BME280;22716;51.556;5.080;2023-02-21T00:42:06;101413.69;;;8.57;100.00
36748;BME280;22716;51.556;5.080;2023-02-21T00:44:47;101415.47;;;8.61;100.00
36748;BME280;22716;51.556;5.080;2023-02-21T00:47:29;101397.13;;;8.48;100.00
36748;BME280;22716;51.556;5.080;2023-02-21T00:50:11;101407.59;;;8.51;100.00
36748;BME280;22716;51.556;5.080;2023-02-21T00:52:53;101410.22;;;8.54;100.00
36748;BME280;22716;51.556;5.080;2023-02-21T00:55:37;101399.75;;;8.55;100.00
36748;BME280;22716;51.556;5.080;2023-02-21T00:58:20;101394.50;;;8.48;100.00
36748;BME280;22716;51.556;5.080;2023-02-21T01:01:01;101403.25;;;8.51;100.00
36748;BME280;22716;51.556;5.080;2023-02-21T01:03:43;101399.72;;;8.49;100.00
36748;BME280;22716;51.556;5.080;2023-02-21T01:06:24;101389.31;;;8.52;100.00
36748;BME280;22716;51.556;5.080;2023-02-21T01:09:06;101398.88;;;8.52;100.00
36748;BME280;22716;51.556;5.080;2023-02-21T01:11:50;101393.69;;;8.56;100.00
36748;BME280;22716;51.556;5.080;2023-02-21T01:14:31;101386.72;;;8.58;100.00
36748;BME280;22716;51.556;5.080;2023-02-21T01:17:13;101387.59;;;8.56;100.00
36748;BME280;22716;51.556;5.080;2023-02-21T01:19:54;101369.19;;;8.40;100.00
36748;BME280;22716;51.556;5.080;2023-02-21T01:22:35;101385.84;;;8.58;100.00
36748;BME280;22716;51.556;5.080;2023-02-21T01:25:17;101375.34;;;8.47;100.00
36748;BME280;22716;51.556;5.080;2023-02-21T01:28:01;101378.84;;;8.51;100.00
36748;BME280;22716;51.556;5.080;2023-02-21T01:30:43;101377.94;;;8.45;100.00
36748;BME280;22716;51.556;5.080;2023-02-21T01:33:24;101375.38;;;8.50;100.00
36748;BME280;22716;51.556;5.080;2023-02-21T01:36:07;101378.00;;;8.55;100.00
36748;BME280;22716;51.556;5.080;2023-02-21T01:38:49;101373.66;;;8.55;100.00
36748;BME280;22716;51.556;5.080;2023-02-21T01:41:30;101374.50;;;8.53;100.00
36748;BME280;22716;51.556;5.080;2023-02-21T01:44:34;101367.50;;;8.49;100.00
36748;BME280;22716;51.556;5.080;2023-02-21T01:47:15;101372.75;;;8.50;100.00
36748;BME280;22716;51.556;5.080;2023-02-21T01:49:57;101373.63;;;8.48;100.00
36748;BME280;22716;51.556;5.080;2023-02-21T01:52:39;101371.03;;;8.51;100.00
36748;BME280;22716;51.556;5.080;2023-02-21T01:55:21;101356.19;;;8.42;100.00
36748;BME280;22716;51.556;5.080;2023-02-21T01:58:03;101367.50;;;8.49;100.00
36748;BME280;22716;51.556;5.080;2023-02-21T02:00:47;101360.56;;;8.52;100.00
36748;BME280;22716;51.556;5.080;2023-02-21T02:03:30;101364.09;;;8.54;100.00
36748;BME280;22716;51.556;5.080;2023-02-21T02:06:14;101348.31;;;8.40;100.00
36748;BME280;22716;51.556;5.080;2023-02-21T02:08:57;101373.63;;;8.51;100.00
36748;BME280;22716;51.556;5.080;2023-02-21T02:11:56;101363.13;;;8.46;100.00
36748;BME280;22716;51.556;5.080;2023-02-21T02:15:05;101357.91;;;8.46;100.00
36748;BME280;22716;51.556;5.080;2023-02-21T02:17:46;101354.44;;;8.45;100.00
36748;BME280;22716;51.556;5.080;2023-02-21T02:20:51;101352.69;;;8.43;100.00
36748;BME280;22716;51.556;5.080;2023-02-21T02:24:00;101358.78;;;8.43;100.00
36748;BME280;22716;51.556;5.080;2023-02-21T02:27:01;101350.09;;;8.44;100.00
36748;BME280;22716;51.556;5.080;2023-02-21T02:30:05;101341.38;;;8.45;100.00
36748;BME280;22716;51.556;5.080;2023-02-21T02:33:01;101345.75;;;8.45;100.00
36748;BME280;22716;51.556;5.080;2023-02-21T02:35:39;101334.41;;;8.41;100.00
36748;BME280;22716;51.556;5.080;2023-02-21T02:38:14;101342.22;;;8.40;100.00
36748;BME280;22716;51.556;5.080;2023-02-21T02:40:49;101339.59;;;8.38;100.00
36748;BME280;22716;51.556;5.080;2023-02-21T02:43:26;101327.41;;;8.36;100.00
36748;BME280;22716;51.556;5.080;2023-02-21T02:46:01;101312.56;;;8.29;100.00
36748;BME280;22716;51.556;5.080;2023-02-21T02:48:36;101324.81;;;8.36;100.00
36748;BME280;22716;51.556;5.080;2023-02-21T02:51:11;101328.25;;;8.35;100.00
36748;BME280;22716;51.556;5.080;2023-02-21T02:53:40;101323.03;;;8.35;100.00
36748;BME280;22716;51.556;5.080;2023-02-21T02:56:11;101321.31;;;8.35;100.00
36748;BME280;22716;51.556;5.080;2023-02-21T02:58:46;101325.69;;;8.36;100.00
36748;BME280;22716;51.556;5.080;2023-02-21T03:01:43;101324.78;;;8.34;100.00
36748;BME280;22716;51.556;5.080;2023-02-21T03:04:30;101310.00;;;8.33;100.00
36748;BME280;22716;51.556;5.080;2023-02-21T03:07:05;101310.84;;;8.32;100.00
36748;BME280;22716;51.556;5.080;2023-02-21T03:09:43;101303.00;;;8.29;100.00
36748;BME280;22716;51.556;5.080;2023-02-21T03:12:21;101311.69;;;8.28;100.00
36748;BME280;22716;51.556;5.080;2023-02-21T03:15:00;101309.03;;;8.24;100.00
36748;BME280;22716;51.556;5.080;2023-02-21T03:17:33;101309.97;;;8.30;100.00
36748;BME280;22716;51.556;5.080;2023-02-21T03:20:07;101314.31;;;8.30;100.00
36748;BME280;22716;51.556;5.080;2023-02-21T03:22:41;101308.22;;;8.29;100.00
36748;BME280;22716;51.556;5.080;2023-02-21T03:25:12;101307.38;;;8.30;100.00
36748;BME280;22716;51.556;5.080;2023-02-21T03:27:42;101309.09;;;8.30;100.00
36748;BME280;22716;51.556;5.080;2023-02-21T03:30:12;101312.56;;;8.32;100.00
36748;BME280;22716;51.556;5.080;2023-02-21T03:32:45;101313.44;;;8.29;100.00
36748;BME280;22716;51.556;5.080;2023-02-21T03:35:16;101291.59;;;8.23;100.00
36748;BME280;22716;51.556;5.080;2023-02-21T03:37:49;101300.34;;;8.28;100.00
36748;BME280;22716;51.556;5.080;2023-02-21T03:40:21;101292.56;;;8.29;100.00
36748;BME280;22716;51.556;5.080;2023-02-21T03:42:52;101299.50;;;8.27;100.00
36748;BME280;22716;51.556;5.080;2023-02-21T03:45:21;101305.59;;;8.29;100.00
36748;BME280;22716;51.556;5.080;2023-02-21T03:47:50;101303.88;;;8.31;100.00
36748;BME280;22716;51.556;5.080;2023-02-21T03:50:19;101297.81;;;8.35;100.00
36748;BME280;22716;51.556;5.080;2023-02-21T03:52:50;101304.78;;;8.33;100.00
36748;BME280;22716;51.556;5.080;2023-02-21T03:55:19;101301.25;;;8.31;100.00
36748;BME280;22716;51.556;5.080;2023-02-21T03:57:48;101301.22;;;8.27;100.00
36748;BME280;22716;51.556;5.080;2023-02-21T04:00:17;101304.75;;;8.30;100.00
36748;BME280;22716;51.556;5.080;2023-02-21T04:02:46;101307.38;;;8.33;100.00
36748;BME280;22716;51.556;5.080;2023-02-21T04:05:16;101310.00;;;8.33;100.00
36748;BME280;22716;51.556;5.080;2023-02-21T04:07:44;101309.09;;;8.30;100.00
36748;BME280;22716;51.556;5.080;2023-02-21T04:10:16;101309.06;;;8.28;100.00
36748;BME280;22716;51.556;5.080;2023-02-21T04:12:45;101306.47;;;8.28;100.00
36748;BME280;22716;51.556;5.080;2023-02-21T04:15:13;101301.28;;;8.34;100.00
36748;BME280;22716;51.556;5.080;2023-02-21T04:17:42;101302.16;;;8.38;100.00
36748;BME280;22716;51.556;5.080;2023-02-21T04:20:12;101294.34;;;8.36;100.00
36748;BME280;22716;51.556;5.080;2023-02-21T04:22:41;101303.06;;;8.38;100.00
36748;BME280;22716;51.556;5.080;2023-02-21T04:25:10;101286.38;;;8.23;100.00
36748;BME280;22716;51.556;5.080;2023-02-21T04:27:41;101293.44;;;8.30;100.00
36748;BME280;22716;51.556;5.080;2023-02-21T04:30:11;101293.44;;;8.34;100.00
36748;BME280;22716;51.556;5.080;2023-02-21T04:32:40;101275.06;;;8.22;100.00
36748;BME280;22716;51.556;5.080;2023-02-21T04:35:08;101298.66;;;8.33;100.00
36748;BME280;22716;51.556;5.080;2023-02-21T04:37:37;101301.31;;;8.36;100.00
36748;BME280;22716;51.556;5.080;2023-02-21T04:40:07;101300.41;;;8.32;100.00
36748;BME280;22716;51.556;5.080;2023-02-21T04:42:36;101295.16;;;8.31;100.00
36748;BME280;22716;51.556;5.080;2023-02-21T04:45:08;101290.78;;;8.28;100.00
36748;BME280;22716;51.556;5.080;2023-02-21T04:47:37;101287.31;;;8.28;100.00
36748;BME280;22716;51.556;5.080;2023-02-21T04:50:06;101290.81;;;8.30;100.00
36748;BME280;22716;51.556;5.080;2023-02-21T04:52:35;101285.53;;;8.25;100.00
36748;BME280;22716;51.556;5.080;2023-02-21T04:55:06;101275.91;;;8.20;100.00
36748;BME280;22716;51.556;5.080;2023-02-21T04:57:35;101284.63;;;8.20;100.00
36748;BME280;22716;51.556;5.080;2023-02-21T05:00:05;101282.88;;;8.18;100.00
36748;BME280;22716;51.556;5.080;2023-02-21T05:02:37;101285.47;;;8.18;100.00
36748;BME280;22716;51.556;5.080;2023-02-21T05:05:10;101281.97;;;8.11;100.00
36748;BME280;22716;51.556;5.080;2023-02-21T05:07:40;101281.13;;;8.15;100.00
36748;BME280;22716;51.556;5.080;2023-02-21T05:10:09;101273.28;;;8.15;100.00
36748;BME280;22716;51.556;5.080;2023-02-21T05:12:39;101280.25;;;8.16;100.00
36748;BME280;22716;51.556;5.080;2023-02-21T05:15:10;101280.22;;;8.13;100.00
36748;BME280;22716;51.556;5.080;2023-02-21T05:17:42;101278.50;;;8.14;100.00
36748;BME280;22716;51.556;5.080;2023-02-21T05:20:11;101277.63;;;8.12;100.00
36748;BME280;22716;51.556;5.080;2023-02-21T05:22:41;101286.31;;;8.12;100.00
36748;BME280;22716;51.556;5.080;2023-02-21T05:25:14;101281.97;;;8.13;100.00
36748;BME280;22716;51.556;5.080;2023-02-21T05:27:44;101292.44;;;8.17;100.00
36748;BME280;22716;51.556;5.080;2023-02-21T05:30:15;101293.31;;;8.18;100.00
36748;BME280;22716;51.556;5.080;2023-02-21T05:32:46;101290.69;;;8.19;100.00
36748;BME280;22716;51.556;5.080;2023-02-21T05:35:16;101287.25;;;8.19;100.00
36748;BME280;22716;51.556;5.080;2023-02-21T05:37:45;101290.69;;;8.16;100.00
36748;BME280;22716;51.556;5.080;2023-02-21T05:40:14;101265.41;;;8.08;100.00
36748;BME280;22716;51.556;5.080;2023-02-21T05:42:44;101292.44;;;8.17;100.00
36748;BME280;22716;51.556;5.080;2023-02-21T05:45:13;101286.34;;;8.17;100.00
36748;BME280;22716;51.556;5.080;2023-02-21T05:47:41;101291.59;;;8.18;100.00
36748;BME280;22716;51.556;5.080;2023-02-21T05:50:13;101283.69;;;8.11;100.00
36748;BME280;22716;51.556;5.080;2023-02-21T05:52:42;101288.06;;;8.13;100.00
36748;BME280;22716;51.556;5.080;2023-02-21T05:55:11;101285.44;;;8.12;100.00
36748;BME280;22716;51.556;5.080;2023-02-21T05:57:39;101286.31;;;8.09;100.00
36748;BME280;22716;51.556;5.080;2023-02-21T06:00:14;101279.34;;;8.11;100.00
36748;BME280;22716;51.556;5.080;2023-02-21T06:02:43;101290.66;;;8.13;100.00
36748;BME280;22716;51.556;5.080;2023-02-21T06:05:15;101291.50;;;8.11;100.00
36748;BME280;22716;51.556;5.080;2023-02-21T06:07:44;101285.41;;;8.06;100.00
36748;BME280;22716;51.556;5.080;2023-02-21T06:10:13;101295.84;;;8.10;100.00
36748;BME280;22716;51.556;5.080;2023-02-21T06:12:42;101278.41;;;8.02;100.00
36748;BME280;22716;51.556;5.080;2023-02-21T06:15:11;101288.03;;;8.09;100.00
36748;BME280;22716;51.556;5.080;2023-02-21T06:17:40;101291.53;;;8.09;100.00
36748;BME280;22716;51.556;5.080;2023-02-21T06:20:14;101295.88;;;8.13;100.00
36748;BME280;22716;51.556;5.080;2023-02-21T06:22:44;101295.00;;;8.10;100.00
36748;BME280;22716;51.556;5.080;2023-02-21T06:25:14;101297.63;;;8.11;100.00
36748;BME280;22716;51.556;5.080;2023-02-21T06:27:43;101276.69;;;8.05;100.00
36748;BME280;22716;51.556;5.080;2023-02-21T06:30:13;101289.78;;;8.10;100.00
36748;BME280;22716;51.556;5.080;2023-02-21T06:32:42;101294.09;;;8.06;100.00
36748;BME280;22716;51.556;5.080;2023-02-21T06:35:14;101298.50;;;8.13;100.00
36748;BME280;22716;51.556;5.080;2023-02-21T06:37:42;101294.13;;;8.11;100.00
36748;BME280;22716;51.556;5.080;2023-02-21T06:40:12;101304.53;;;8.08;100.00
36748;BME280;22716;51.556;5.080;2023-02-21T06:42:40;101296.72;;;8.08;100.00
36748;BME280;22716;51.556;5.080;2023-02-21T06:45:09;101295.91;;;8.16;100.00
36748;BME280;22716;51.556;5.080;2023-02-21T06:47:38;101295.94;;;8.18;100.00
36748;BME280;22716;51.556;5.080;2023-02-21T06:50:07;101296.78;;;8.17;100.00
36748;BME280;22716;51.556;5.080;2023-02-21T06:52:38;101289.78;;;8.10;100.00
36748;BME280;22716;51.556;5.080;2023-02-21T06:55:07;101301.97;;;8.14;100.00
36748;BME280;22716;51.556;5.080;2023-02-21T06:57:36;101298.50;;;8.16;100.00
36748;BME280;22716;51.556;5.080;2023-02-21T07:00:06;101305.53;;;8.19;100.00
36748;BME280;22716;51.556;5.080;2023-02-21T07:02:35;101301.13;;;8.15;100.00
36748;BME280;22716;51.556;5.080;2023-02-21T07:05:05;101303.75;;;8.15;100.00
36748;BME280;22716;51.556;5.080;2023-02-21T07:07:34;101298.50;;;8.13;100.00
36748;BME280;22716;51.556;5.080;2023-02-21T07:10:07;101301.09;;;8.13;100.00
36748;BME280;22716;51.556;5.080;2023-02-21T07:12:36;101301.13;;;8.16;100.00
36748;BME280;22716;51.556;5.080;2023-02-21T07:15:05;101311.56;;;8.16;100.00
36748;BME280;22716;51.556;5.080;2023-02-21T07:17:34;101308.97;;;8.19;100.00
36748;BME280;22716;51.556;5.080;2023-02-21T07:20:04;101307.28;;;8.21;100.00
36748;BME280;22716;51.556;5.080;2023-02-21T07:22:33;101308.97;;;8.15;100.00
36748;BME280;22716;51.556;5.080;2023-02-21T07:25:03;101310.72;;;8.17;100.00
36748;BME280;22716;51.556;5.080;2023-02-21T07:27:34;101317.69;;;8.23;100.00
36748;BME280;22716;51.556;5.080;2023-02-21T07:30:04;101288.06;;;8.13;100.00
36748;BME280;22716;51.556;5.080;2023-02-21T07:32:33;101292.41;;;8.14;100.00
36748;BME280;22716;51.556;5.080;2023-02-21T07:35:02;101308.97;;;8.19;100.00
36748;BME280;22716;51.556;5.080;2023-02-21T07:37:31;101309.84;;;8.20;100.00
36748;BME280;22716;51.556;5.080;2023-02-21T07:40:00;101315.06;;;8.17;100.00
36748;BME280;22716;51.556;5.080;2023-02-21T07:42:30;101302.84;;;8.11;100.00
36748;BME280;22716;51.556;5.080;2023-02-21T07:45:02;101301.06;;;8.10;100.00
36748;BME280;22716;51.556;5.080;2023-02-21T07:47:31;101312.41;;;8.09;100.00
36748;BME280;22716;51.556;5.080;2023-02-21T07:49:59;101303.69;;;8.04;100.00
36748;BME280;22716;51.556;5.080;2023-02-21T07:52:28;101302.78;;;8.05;100.00
36748;BME280;22716;51.556;5.080;2023-02-21T07:54:57;101309.72;;;8.00;100.00
36748;BME280;22716;51.556;5.080;2023-02-21T07:57:26;101311.44;;;8.00;100.00
36748;BME280;22716;51.556;5.080;2023-02-21T07:59:55;101301.81;;;7.93;100.00
36748;BME280;22716;51.556;5.080;2023-02-21T08:02:26;101307.91;;;7.93;100.00
36748;BME280;22716;51.556;5.080;2023-02-21T08:04:55;101312.34;;;8.00;100.00
36748;BME280;22716;51.556;5.080;2023-02-21T08:07:23;101304.50;;;8.00;100.00
36748;BME280;22716;51.556;5.080;2023-02-21T08:09:52;101294.91;;;7.98;100.00
36748;BME280;22716;51.556;5.080;2023-02-21T08:12:21;101285.25;;;7.84;100.00
36748;BME280;22716;51.556;5.080;2023-02-21T08:14:50;101320.22;;;8.06;100.00
36748;BME280;22716;51.556;5.080;2023-02-21T08:17:18;101315.88;;;8.07;100.00
36748;BME280;22716;51.556;5.080;2023-02-21T08:19:50;101300.97;;;7.94;100.00
36748;BME280;22716;51.556;5.080;2023-02-21T08:22:18;101294.00;;;7.91;100.00
36748;BME280;22716;51.556;5.080;2023-02-21T08:24:48;101306.22;;;7.95;100.00
36748;BME280;22716;51.556;5.080;2023-02-21T08:27:17;101311.41;;;7.94;100.00
36748;BME280;22716;51.556;5.080;2023-02-21T08:29:49;101307.09;;;7.99;100.00
36748;BME280;22716;51.556;5.080;2023-02-21T08:32:18;101322.78;;;8.03;100.00
36748;BME280;22716;51.556;5.080;2023-02-21T08:34:50;101281.81;;;7.88;100.00
36748;BME280;22716;51.556;5.080;2023-02-21T08:37:18;101307.13;;;8.05;100.00
36748;BME280;22716;51.556;5.080;2023-02-21T08:39:49;101303.66;;;8.06;100.00
36748;BME280;22716;51.556;5.080;2023-02-21T08:42:18;101297.56;;;8.04;100.00
36748;BME280;22716;51.556;5.080;2023-02-21T08:44:47;101300.16;;;8.01;100.00
36748;BME280;22716;51.556;5.080;2023-02-21T08:47:16;101297.53;;;7.99;100.00
36748;BME280;22716;51.556;5.080;2023-02-21T08:49:46;101294.03;;;7.97;100.00
36748;BME280;22716;51.556;5.080;2023-02-21T08:52:19;101298.44;;;8.01;100.00
36748;BME280;22716;51.556;5.080;2023-02-21T08:54:48;101299.31;;;8.03;100.00
36748;BME280;22716;51.556;5.080;2023-02-21T08:57:17;101290.59;;;8.01;100.00
36748;BME280;22716;51.556;5.080;2023-02-21T08:59:46;101299.31;;;8.08;100.00
36748;BME280;22716;51.556;5.080;2023-02-21T09:02:15;101294.13;;;8.09;100.00
36748;BME280;22716;51.556;5.080;2023-02-21T09:04:44;101284.56;;;8.07;100.00
36748;BME280;22716;51.556;5.080;2023-02-21T09:07:14;101274.94;;;8.01;100.00
36748;BME280;22716;51.556;5.080;2023-02-21T09:09:46;101278.41;;;8.00;100.00
36748;BME280;22716;51.556;5.080;2023-02-21T09:12:16;101294.09;;;8.06;100.00
36748;BME280;22716;51.556;5.080;2023-02-21T09:14:44;101292.38;;;8.08;100.00
36748;BME280;22716;51.556;5.080;2023-02-21T09:17:13;101288.91;;;8.09;100.00
36748;BME280;22716;51.556;5.080;2023-02-21T09:19:42;101284.56;;;8.10;100.00
36748;BME280;22716;51.556;5.080;2023-02-21T09:22:10;101283.66;;;8.06;100.00
36748;BME280;22716;51.556;5.080;2023-02-21T09:24:40;101284.53;;;8.04;100.00
36748;BME280;22716;51.556;5.080;2023-02-21T09:27:11;101277.53;;;7.98;100.00
36748;BME280;22716;51.556;5.080;2023-02-21T09:29:43;101278.41;;;8.00;100.00
36748;BME280;22716;51.556;5.080;2023-02-21T09:32:12;101285.41;;;8.06;100.00
36748;BME280;22716;51.556;5.080;2023-02-21T09:34:41;101283.69;;;8.09;100.00
36748;BME280;22716;51.556;5.080;2023-02-21T09:37:10;101283.69;;;8.09;100.00
36748;BME280;22716;51.556;5.080;2023-02-21T09:39:39;101288.94;;;8.12;100.00
36748;BME280;22716;51.556;5.080;2023-02-21T09:42:14;101257.56;;;8.06;100.00
36748;BME280;22716;51.556;5.080;2023-02-21T09:44:44;101265.44;;;8.12;100.00
36748;BME280;22716;51.556;5.080;2023-02-21T09:47:17;101274.16;;;8.13;100.00
36748;BME280;22716;51.556;5.080;2023-02-21T09:49:52;101270.66;;;8.12;100.00
36748;BME280;22716;51.556;5.080;2023-02-21T09:52:29;101278.50;;;8.15;100.00
36748;BME280;22716;51.556;5.080;2023-02-21T09:55:02;101271.53;;;8.14;100.00
36748;BME280;22716;51.556;5.080;2023-02-21T09:57:35;101279.41;;;8.19;100.00
36748;BME280;22716;51.556;5.080;2023-02-21T10:00:15;101248.88;;;8.04;100.00
36748;BME280;22716;51.556;5.080;2023-02-21T10:02:53;101276.81;;;8.22;100.00
36748;BME280;22716;51.556;5.080;2023-02-21T10:05:41;101286.41;;;8.26;100.00
36748;BME280;22716;51.556;5.080;2023-02-21T10:08:19;101282.88;;;8.18;100.00
36748;BME280;22716;51.556;5.080;2023-02-21T10:10:52;101276.75;;;8.13;100.00
36748;BME280;22716;51.556;5.080;2023-02-21T10:13:34;101275.88;;;8.14;100.00
36748;BME280;22716;51.556;5.080;2023-02-21T10:16:12;101280.25;;;8.16;100.00
36748;BME280;22716;51.556;5.080;2023-02-21T10:18:51;101261.91;;;8.04;100.00
36748;BME280;22716;51.556;5.080;2023-02-21T10:21:27;101260.16;;;8.05;100.00
36748;BME280;22716;51.556;5.080;2023-02-21T10:23:57;101277.66;;;8.18;100.00
36748;BME280;22716;51.556;5.080;2023-02-21T10:26:32;101280.28;;;8.22;100.00
36748;BME280;22716;51.556;5.080;2023-02-21T10:29:18;101278.53;;;8.23;100.00
36748;BME280;22716;51.556;5.080;2023-02-21T10:31:51;101279.41;;;8.19;100.00
36748;BME280;22716;51.556;5.080;2023-02-21T10:34:25;101287.28;;;8.26;100.00
36748;BME280;22716;51.556;5.080;2023-02-21T10:36:57;101278.56;;;8.24;100.00
36748;BME280;22716;51.556;5.080;2023-02-21T10:39:33;101282.06;;;8.26;100.00
36748;BME280;22716;51.556;5.080;2023-02-21T10:42:04;101278.56;;;8.24;100.00
36748;BME280;22716;51.556;5.080;2023-02-21T10:44:35;101289.06;;;8.27;100.00
36748;BME280;22716;51.556;5.080;2023-02-21T10:47:13;101289.94;;;8.34;100.00
36748;BME280;22716;51.556;5.080;2023-02-21T10:49:49;101277.78;;;8.33;100.00
36748;BME280;22716;51.556;5.080;2023-02-21T10:52:20;101264.63;;;8.22;100.00
36748;BME280;22716;51.556;5.080;2023-02-21T10:55:00;101271.63;;;8.26;100.00
36748;BME280;22716;51.556;5.080;2023-02-21T10:57:31;101280.34;;;8.28;100.00
36748;BME280;22716;51.556;5.080;2023-02-21T11:00:05;101268.97;;;8.25;100.00
36748;BME280;22716;51.556;5.080;2023-02-21T11:02:38;101265.59;;;8.30;100.00
36748;BME280;22716;51.556;5.080;2023-02-21T11:05:11;101269.06;;;8.32;100.00
36748;BME280;22716;51.556;5.080;2023-02-21T11:07:41;101269.06;;;8.29;100.00
36748;BME280;22716;51.556;5.080;2023-02-21T11:10:26;101267.28;;;8.27;100.00
36748;BME280;22716;51.556;5.080;2023-02-21T11:13:11;101269.06;;;8.32;100.00
36748;BME280;22716;51.556;5.080;2023-02-21T11:15:44;101269.06;;;8.34;100.00
36748;BME280;22716;51.556;5.080;2023-02-21T11:18:16;101258.66;;;8.35;100.00
36748;BME280;22716;51.556;5.080;2023-02-21T11:20:45;101263.91;;;8.41;100.00
36748;BME280;22716;51.556;5.080;2023-02-21T11:23:20;101259.56;;;8.47;100.00
36748;BME280;22716;51.556;5.080;2023-02-21T11:25:56;101214.19;;;8.26;100.00
36748;BME280;22716;51.556;5.080;2023-02-21T11:28:26;101256.97;;;8.48;100.00
36748;BME280;22716;51.556;5.080;2023-02-21T11:31:14;101241.28;;;8.45;100.00
36748;BME280;22716;51.556;5.080;2023-02-21T11:33:50;101240.44;;;8.51;100.00
36748;BME280;22716;51.556;5.080;2023-02-21T11:36:27;101241.34;;;8.54;100.00
36748;BME280;22716;51.556;5.080;2023-02-21T11:39:04;101248.31;;;8.61;100.00
36748;BME280;22716;51.556;5.080;2023-02-21T11:41:44;101239.59;;;8.64;100.00
36748;BME280;22716;51.556;5.080;2023-02-21T11:44:26;101232.66;;;8.64;100.00
36748;BME280;22716;51.556;5.080;2023-02-21T11:47:06;101223.94;;;8.62;100.00
36748;BME280;22716;51.556;5.080;2023-02-21T11:49:45;101223.91;;;8.58;100.00
36748;BME280;22716;51.556;5.080;2023-02-21T11:52:20;101225.66;;;8.59;100.00
36748;BME280;22716;51.556;5.080;2023-02-21T11:54:50;101223.06;;;8.63;100.00
36748;BME280;22716;51.556;5.080;2023-02-21T11:57:24;101222.22;;;8.67;100.00
36748;BME280;22716;51.556;5.080;2023-02-21T12:00:04;101230.91;;;8.63;100.00
36748;BME280;22716;51.556;5.080;2023-02-21T12:02:59;101211.75;;;8.60;100.00
36748;BME280;22716;51.556;5.080;2023-02-21T12:05:38;101219.56;;;8.61;100.00
36748;BME280;22716;51.556;5.080;2023-02-21T12:14:38;101209.19;;;8.79;100.00
36748;BME280;22716;51.556;5.080;2023-02-21T12:17:19;101208.31;;;8.89;100.00
36748;BME280;22716;51.556;5.080;2023-02-21T12:20:06;101206.63;;;8.94;100.00
36748;BME280;22716;51.556;5.080;2023-02-21T12:22:50;101209.22;;;8.99;100.00
36748;BME280;22716;51.556;5.080;2023-02-21T12:25:30;101204.88;;;8.99;100.00
36748;BME280;22716;51.556;5.080;2023-02-21T12:28:08;101202.28;;;8.95;100.00
36748;BME280;22716;51.556;5.080;2023-02-21T12:30:54;101201.41;;;9.04;100.00
36748;BME280;22716;51.556;5.080;2023-02-21T12:33:40;101176.13;;;8.92;100.00
36748;BME280;22716;51.556;5.080;2023-02-21T12:39:21;101202.28;;;9.09;100.00
36748;BME280;22716;51.556;5.080;2023-02-21T12:42:16;101197.03;;;9.07;100.00
36748;BME280;22716;51.556;5.080;2023-02-21T12:45:01;101198.78;;;9.05;100.00
36748;BME280;22716;51.556;5.080;2023-02-21T12:47:37;101197.03;;;9.02;100.00
36748;BME280;22716;51.556;5.080;2023-02-21T12:50:14;101195.28;;;8.92;100.00
36748;BME280;22716;51.556;5.080;2023-02-21T12:52:51;101185.69;;;8.93;100.00
36748;BME280;22716;51.556;5.080;2023-02-21T12:55:31;101186.56;;;8.87;100.00
36748;BME280;22716;51.556;5.080;2023-02-21T12:58:10;101187.44;;;8.88;100.00
36748;BME280;22716;51.556;5.080;2023-02-21T13:00:45;101190.03;;;8.88;100.00
36748;BME280;22716;51.556;5.080;2023-02-21T13:03:31;101176.09;;;8.84;100.00
36748;BME280;22716;51.556;5.080;2023-02-21T13:06:05;101170.88;;;8.84;100.00
36748;BME280;22716;51.556;5.080;2023-02-21T13:08:49;101179.59;;;8.82;100.00
36748;BME280;22716;51.556;5.080;2023-02-21T13:11:24;101176.97;;;8.82;100.00
36748;BME280;22716;51.556;5.080;2023-02-21T13:13:54;101174.34;;;8.79;100.00
36748;BME280;22716;51.556;5.080;2023-02-21T13:16:24;101163.88;;;8.76;100.00
36748;BME280;22716;51.556;5.080;2023-02-21T13:18:55;101165.63;;;8.74;100.00
36748;BME280;22716;51.556;5.080;2023-02-21T13:21:41;101178.72;;;8.80;100.00
36748;BME280;22716;51.556;5.080;2023-02-21T13:24:43;101170.00;;;8.73;100.00
36748;BME280;22716;51.556;5.080;2023-02-21T13:27:47;101163.88;;;8.73;100.00
36748;BME280;22716;51.556;5.080;2023-02-21T13:30:24;101162.16;;;8.72;100.00
36748;BME280;22716;51.556;5.080;2023-02-21T13:32:57;101163.00;;;8.65;100.00
36748;BME280;22716;51.556;5.080;2023-02-21T13:35:30;101158.66;;;8.62;100.00
36748;BME280;22716;51.556;5.080;2023-02-21T13:38:00;101164.75;;;8.64;100.00
36748;BME280;22716;51.556;5.080;2023-02-21T13:40:36;101155.16;;;8.63;100.00